createdAt,value
2019-01-06T00:02:02.873Z,1.20
2019-01-06T00:04:29.963Z,1.00
2019-01-06T00:06:57.251Z,1.10
2019-01-06T00:09:24.390Z,1.40
2019-01-06T00:11:51.516Z,1.10
2019-01-06T00:14:18.625Z,1.33
2019-01-06T00:16:46.688Z,1.13
2019-01-06T00:19:13.769Z,1.57
2019-01-06T00:21:40.869Z,1.03
2019-01-06T00:24:08.530Z,1.10
2019-01-06T00:26:35.638Z,1.30
2019-01-06T00:29:02.719Z,0.90
2019-01-06T00:31:29.843Z,1.07
2019-01-06T00:33:57.050Z,1.10
2019-01-06T00:36:24.120Z,0.97
2019-01-06T00:38:51.259Z,1.00
2019-01-06T00:41:18.366Z,1.10
2019-01-06T00:43:45.445Z,0.83
2019-01-06T00:46:12.686Z,0.90
2019-01-06T00:48:39.778Z,0.80
2019-01-06T00:51:06.863Z,1.00
2019-01-06T00:53:33.922Z,0.93
2019-01-06T00:56:01.021Z,1.10
2019-01-06T00:58:28.135Z,0.90
2019-01-06T01:00:55.209Z,1.00
2019-01-06T01:03:22.267Z,0.90
2019-01-06T01:05:49.365Z,0.90
2019-01-06T01:08:16.448Z,1.20
2019-01-06T01:10:43.509Z,0.90
2019-01-06T01:13:10.612Z,0.80
2019-01-06T01:15:37.694Z,0.80
2019-01-06T01:18:04.782Z,0.87
2019-01-06T01:20:31.886Z,1.40
2019-01-06T01:22:58.985Z,0.77
2019-01-06T01:25:26.116Z,0.70
2019-01-06T01:27:53.206Z,0.80
2019-01-06T01:30:20.270Z,1.03
2019-01-06T01:32:47.370Z,0.90
2019-01-06T01:35:14.463Z,0.90
2019-01-06T01:37:41.590Z,0.77
2019-01-06T01:40:08.680Z,0.80
2019-01-06T01:42:35.756Z,0.80
2019-01-06T01:45:02.858Z,0.70
2019-01-06T01:47:29.953Z,1.00
2019-01-06T01:49:57.008Z,0.90
2019-01-06T01:52:24.089Z,0.87
2019-01-06T01:54:51.147Z,0.70
2019-01-06T01:57:18.251Z,0.80
2019-01-06T01:59:45.309Z,0.70
2019-01-06T02:02:12.609Z,0.90
2019-01-06T02:04:39.785Z,0.93
2019-01-06T02:07:07.067Z,0.90
2019-01-06T02:09:34.118Z,0.70
2019-01-06T02:12:01.208Z,0.80
2019-01-06T02:14:28.299Z,0.70
2019-01-06T02:16:55.458Z,1.10
2019-01-06T02:19:22.565Z,0.63
2019-01-06T02:21:49.613Z,0.90
2019-01-06T02:24:16.670Z,0.70
2019-01-06T02:26:43.844Z,0.60
2019-01-06T02:29:10.931Z,0.60
2019-01-06T02:31:37.980Z,0.70
2019-01-06T02:34:05.078Z,0.70
2019-01-06T02:36:32.329Z,0.70
2019-01-06T02:38:59.380Z,0.73
2019-01-06T02:41:26.479Z,0.70
2019-01-06T02:43:53.537Z,0.60
2019-01-06T02:46:20.600Z,0.50
2019-01-06T02:48:47.899Z,0.70
2019-01-06T02:51:14.953Z,0.80
2019-01-06T02:53:42.058Z,0.60
2019-01-06T02:56:09.133Z,0.60
2019-01-06T02:58:36.291Z,0.60
2019-01-06T03:01:03.336Z,0.53
2019-01-06T03:03:30.432Z,0.50
2019-01-06T03:05:57.490Z,0.70
2019-01-06T03:08:24.693Z,0.53
2019-01-06T03:10:51.736Z,0.50
2019-01-06T03:13:18.835Z,0.57
2019-01-06T03:15:45.892Z,0.60
2019-01-06T03:18:13.060Z,0.50
2019-01-06T03:20:40.352Z,0.57
2019-01-06T03:23:07.446Z,0.50
2019-01-06T03:25:34.512Z,0.60
2019-01-06T03:28:01.677Z,0.80
2019-01-06T03:30:28.745Z,0.50
2019-01-06T03:32:55.833Z,0.50
2019-01-06T03:35:22.882Z,0.60
2019-01-06T03:37:50.083Z,0.80
2019-01-06T03:40:17.174Z,0.50
2019-01-06T03:42:44.239Z,0.40
2019-01-06T03:45:11.339Z,0.40
2019-01-06T03:47:38.472Z,0.50
2019-01-06T03:50:05.555Z,0.50
2019-01-06T03:52:32.646Z,0.60
2019-01-06T03:54:59.704Z,0.60
2019-01-06T03:57:26.860Z,0.50
2019-01-06T03:59:53.931Z,0.60
2019-01-06T04:02:21.070Z,0.40
2019-01-06T04:04:48.156Z,0.57
2019-01-06T04:07:15.461Z,0.50
2019-01-06T04:09:42.513Z,0.50
2019-01-06T04:12:09.607Z,0.40
2019-01-06T04:14:36.661Z,0.50
2019-01-06T04:17:03.859Z,0.50
2019-01-06T04:19:30.935Z,0.50
2019-01-06T04:21:57.996Z,0.50
2019-01-06T04:24:25.087Z,0.47
2019-01-06T04:26:52.290Z,0.50
2019-01-06T04:29:19.508Z,0.40
2019-01-06T04:31:46.566Z,0.30
2019-01-06T04:34:13.655Z,0.50
2019-01-06T04:36:40.709Z,0.50
2019-01-06T04:39:07.905Z,0.60
2019-01-06T04:41:35.001Z,0.50
2019-01-06T04:44:02.055Z,0.40
2019-01-06T04:46:29.106Z,0.43
2019-01-06T04:48:56.301Z,0.50
2019-01-06T04:51:23.358Z,0.40
2019-01-06T04:53:50.450Z,0.50
2019-01-06T04:56:17.515Z,0.43
2019-01-06T04:58:44.703Z,0.40
2019-01-06T05:01:11.793Z,0.63
2019-01-06T05:03:38.863Z,0.40
2019-01-06T05:06:06.054Z,0.50
2019-01-06T05:08:33.202Z,0.43
2019-01-06T05:11:00.252Z,0.40
2019-01-06T05:13:27.304Z,0.40
2019-01-06T05:15:54.445Z,0.50
2019-01-06T05:18:21.547Z,0.40
2019-01-06T05:20:48.603Z,0.40
2019-01-06T05:23:15.664Z,0.50
2019-01-06T05:25:42.835Z,0.40
2019-01-06T05:28:09.925Z,0.40
2019-01-06T05:30:37.022Z,0.40
2019-01-06T05:33:04.183Z,0.40
2019-01-06T05:35:31.267Z,0.40
2019-01-06T05:37:58.324Z,0.63
2019-01-06T05:40:25.390Z,0.40
2019-01-06T05:42:52.577Z,0.60
2019-01-06T05:45:19.677Z,0.40
2019-01-06T05:47:46.733Z,0.50
2019-01-06T05:50:13.905Z,0.50
2019-01-06T05:52:41.176Z,0.43
2019-01-06T05:55:08.234Z,0.40
2019-01-06T05:57:35.479Z,0.40
2019-01-06T06:00:02.547Z,0.50
2019-01-06T06:02:29.627Z,0.50
2019-01-06T06:04:56.684Z,0.40
2019-01-06T06:07:23.882Z,0.40
2019-01-06T06:09:50.979Z,0.40
2019-01-06T06:12:18.063Z,0.40
2019-01-06T06:14:45.136Z,0.50
2019-01-06T06:17:12.757Z,0.47
2019-01-06T06:19:39.819Z,0.40
2019-01-06T06:22:06.893Z,1.43
2019-01-06T06:24:33.990Z,0.60
2019-01-06T06:27:01.038Z,0.67
2019-01-06T06:29:28.336Z,1.53
2019-01-06T06:31:55.395Z,0.70
2019-01-06T06:34:22.485Z,0.40
2019-01-06T06:36:49.675Z,0.50
2019-01-06T06:39:16.734Z,0.40
2019-01-06T06:41:43.829Z,0.67
2019-01-06T06:44:10.888Z,0.43
2019-01-06T06:46:37.991Z,0.50
2019-01-06T06:49:05.055Z,0.40
2019-01-06T06:51:32.120Z,0.50
2019-01-06T06:53:59.408Z,0.40
2019-01-06T06:56:26.505Z,0.63
2019-01-06T06:58:53.727Z,0.70
2019-01-06T07:01:20.791Z,0.30
2019-01-06T07:03:47.854Z,0.43
2019-01-06T07:06:15.073Z,0.40
2019-01-06T07:08:42.131Z,0.50
2019-01-06T07:11:09.200Z,0.50
2019-01-06T07:13:36.426Z,0.50
2019-01-06T07:16:03.482Z,0.50
2019-01-06T07:18:30.714Z,0.40
2019-01-06T07:20:57.805Z,0.40
2019-01-06T07:23:24.869Z,0.40
2019-01-06T07:25:51.997Z,0.53
2019-01-06T07:28:19.092Z,0.50
2019-01-06T07:30:46.265Z,0.40
2019-01-06T07:33:13.317Z,0.40
2019-01-06T07:35:40.404Z,0.40
2019-01-06T07:38:07.474Z,0.50
2019-01-06T07:40:34.565Z,0.40
2019-01-06T07:43:01.655Z,0.40
2019-01-06T07:45:28.734Z,0.40
2019-01-06T07:47:55.845Z,0.50
2019-01-06T07:50:22.953Z,0.40
2019-01-06T07:52:50.052Z,0.37
2019-01-06T07:55:17.197Z,0.70
2019-01-06T07:57:44.257Z,0.40
2019-01-06T08:00:15.455Z,0.50
2019-01-06T08:02:41.473Z,0.40
2019-01-06T08:05:08.603Z,0.43
2019-01-06T08:07:35.783Z,0.47
2019-01-06T08:10:02.841Z,0.60
2019-01-06T08:12:29.937Z,0.40
2019-01-06T08:14:56.995Z,0.40
2019-01-06T08:17:24.060Z,0.40
2019-01-06T08:19:51.224Z,0.60
2019-01-06T08:22:18.277Z,0.53
2019-01-06T08:24:45.367Z,0.50
2019-01-06T08:27:12.550Z,0.73
2019-01-06T08:29:39.605Z,0.50
2019-01-06T08:32:06.666Z,0.50
2019-01-06T08:34:33.898Z,0.40
2019-01-06T08:37:00.959Z,0.53
2019-01-06T08:39:28.237Z,0.50
2019-01-06T08:41:55.302Z,0.50
2019-01-06T08:44:22.392Z,0.50
2019-01-06T08:46:49.451Z,0.50
2019-01-06T08:49:16.604Z,0.60
2019-01-06T08:51:43.658Z,0.50
2019-01-06T08:54:10.712Z,0.60
2019-01-06T08:56:37.962Z,0.50
2019-01-06T08:59:05.039Z,0.60
2019-01-06T09:01:32.136Z,0.57
2019-01-06T09:03:59.269Z,0.60
2019-01-06T09:06:26.566Z,0.60
2019-01-06T09:08:53.663Z,0.80
2019-01-06T09:11:20.709Z,0.60
2019-01-06T09:13:47.791Z,0.60
2019-01-06T09:16:14.940Z,0.80
2019-01-06T09:18:41.999Z,0.80
2019-01-06T09:21:09.053Z,0.77
2019-01-06T09:23:36.140Z,0.80
2019-01-06T09:26:03.203Z,0.70
2019-01-06T09:28:30.391Z,0.90
2019-01-06T09:30:57.441Z,0.90
2019-01-06T09:33:24.550Z,0.80
2019-01-06T09:35:51.724Z,0.90
2019-01-06T09:38:18.827Z,0.80
2019-01-06T09:40:47.554Z,0.87
2019-01-06T09:43:14.854Z,0.80
2019-01-06T09:45:41.930Z,0.73
2019-01-06T09:48:08.983Z,1.10
2019-01-06T09:50:36.276Z,0.80
2019-01-06T09:53:03.403Z,0.90
2019-01-06T09:55:30.497Z,0.90
2019-01-06T09:57:57.544Z,0.90
2019-01-06T10:00:24.630Z,1.07
2019-01-06T10:02:51.695Z,1.00
2019-01-06T10:05:18.798Z,1.00
2019-01-06T10:07:45.853Z,1.10
2019-01-06T10:10:13.060Z,0.83
2019-01-06T10:12:40.117Z,0.80
2019-01-06T10:15:07.225Z,0.93
2019-01-06T10:17:34.312Z,1.30
2019-01-06T10:20:01.413Z,0.73
2019-01-06T10:22:28.515Z,0.97
2019-01-06T10:24:55.623Z,1.57
2019-01-06T10:27:22.822Z,0.93
2019-01-06T10:29:49.915Z,1.10
2019-01-06T10:32:18.027Z,1.00
2019-01-06T10:34:45.084Z,1.30
2019-01-06T10:37:12.221Z,1.80
2019-01-06T10:39:39.329Z,1.83
2019-01-06T10:42:06.397Z,1.47
2019-01-06T10:44:33.484Z,1.50
2019-01-06T10:47:00.625Z,1.43
2019-01-06T10:49:27.721Z,1.57
2019-01-06T10:51:54.816Z,1.33
2019-01-06T10:54:21.910Z,1.50
2019-01-06T10:56:49.006Z,1.23
2019-01-06T10:59:16.173Z,1.57
2019-01-06T11:01:43.288Z,1.77
2019-01-06T11:04:10.331Z,1.67
2019-01-06T11:06:37.678Z,1.60
2019-01-06T11:09:04.735Z,1.30
2019-01-06T11:11:31.830Z,1.50
2019-01-06T11:13:58.923Z,1.70
2019-01-06T11:16:25.982Z,1.53
2019-01-06T11:18:53.163Z,1.53
2019-01-06T11:21:20.209Z,1.77
2019-01-06T11:23:47.265Z,2.20
2019-01-06T11:26:14.534Z,2.10
2019-01-06T11:28:42.047Z,2.10
2019-01-06T11:31:09.332Z,1.87
2019-01-06T11:33:36.479Z,2.03
2019-01-06T11:36:03.679Z,2.13
2019-01-06T11:38:30.759Z,1.83
2019-01-06T11:40:57.942Z,1.57
2019-01-06T11:43:28.626Z,1.77
2019-01-06T11:45:56.000Z,2.10
2019-01-06T11:48:23.099Z,1.90
2019-01-06T11:50:50.191Z,1.93
2019-01-06T11:53:17.331Z,2.03
2019-01-06T11:55:44.537Z,2.00
2019-01-06T11:58:11.730Z,1.70
2019-01-06T12:00:38.819Z,2.10
2019-01-06T12:03:05.886Z,1.93
2019-01-06T12:05:33.057Z,1.60
2019-01-06T12:08:00.234Z,2.30
2019-01-06T12:10:27.305Z,1.70
2019-01-06T12:12:54.465Z,2.50
2019-01-06T12:15:21.606Z,1.77
2019-01-06T12:17:48.738Z,2.13
2019-01-06T12:20:16.191Z,2.03
2019-01-06T12:22:43.337Z,1.87
2019-01-06T12:25:10.583Z,1.80
2019-01-06T12:27:37.659Z,1.90
2019-01-06T12:30:04.803Z,2.33
2019-01-06T12:32:32.034Z,2.00
2019-01-06T12:34:59.118Z,2.60
2019-01-06T12:37:26.226Z,2.27
2019-01-06T12:39:53.431Z,1.80
2019-01-06T12:42:20.490Z,2.20
2019-01-06T12:44:47.592Z,2.40
2019-01-06T12:47:15.235Z,2.00
2019-01-06T12:49:42.481Z,1.90
2019-01-06T12:52:09.641Z,2.07
2019-01-06T12:54:36.699Z,2.30
2019-01-06T12:57:03.796Z,1.50
2019-01-06T12:59:30.859Z,2.10
2019-01-06T13:01:57.939Z,2.30
2019-01-06T13:04:24.993Z,1.90
2019-01-06T13:06:52.209Z,2.53
2019-01-06T13:09:19.306Z,2.47
2019-01-06T13:11:46.392Z,2.50
2019-01-06T13:14:13.482Z,2.30
2019-01-06T13:16:40.539Z,2.33
2019-01-06T13:19:07.830Z,2.10
2019-01-06T13:21:34.883Z,2.53
2019-01-06T13:24:01.946Z,2.40
2019-01-06T13:26:29.181Z,2.13
2019-01-06T13:28:56.282Z,2.23
2019-01-06T13:31:23.343Z,1.83
2019-01-06T13:33:50.464Z,1.60
2019-01-06T13:36:17.518Z,2.10
2019-01-06T13:38:44.827Z,2.17
2019-01-06T13:41:11.987Z,2.50
2019-01-06T13:43:39.051Z,1.53
2019-01-06T13:46:06.154Z,2.00
2019-01-06T13:48:33.211Z,1.97
2019-01-06T13:51:00.265Z,1.73
2019-01-06T13:53:27.509Z,1.90
2019-01-06T13:55:54.797Z,1.97
2019-01-06T13:58:21.859Z,1.60
2019-01-06T14:00:49.070Z,1.90
2019-01-06T14:03:16.161Z,1.70
2019-01-06T14:05:43.369Z,1.60
2019-01-06T14:08:10.438Z,1.80
2019-01-06T14:10:37.499Z,1.80
2019-01-06T14:13:04.610Z,1.30
2019-01-06T14:15:31.748Z,1.67
2019-01-06T14:17:58.809Z,2.00
2019-01-06T14:20:26.055Z,1.57
2019-01-06T14:22:53.189Z,1.60
2019-01-06T14:25:20.350Z,1.60
2019-01-06T14:27:47.447Z,1.70
2019-01-06T14:30:14.514Z,1.90
2019-01-06T14:32:41.599Z,1.60
2019-01-06T14:35:08.686Z,1.20
2019-01-06T14:37:47.486Z,1.23
2019-01-06T14:40:14.753Z,1.67
2019-01-06T14:42:41.857Z,1.60
2019-01-06T14:45:08.933Z,1.57
2019-01-06T14:47:36.063Z,1.67
2019-01-06T14:50:03.193Z,1.30
2019-01-06T14:52:30.303Z,1.60
2019-01-06T14:54:57.400Z,2.40
2019-01-06T14:57:24.721Z,1.47
2019-01-06T14:59:51.829Z,1.50
2019-01-06T15:02:19.404Z,1.10
2019-01-06T15:04:46.495Z,1.53
2019-01-06T15:07:13.554Z,1.90
2019-01-06T15:09:40.735Z,1.70
2019-01-06T15:12:07.867Z,1.80
2019-01-06T15:14:34.986Z,2.13
2019-01-06T15:17:02.100Z,1.93
2019-01-06T15:19:29.158Z,2.00
2019-01-06T15:21:56.293Z,1.60
2019-01-06T15:24:23.419Z,1.90
2019-01-06T15:26:50.696Z,1.83
2019-01-06T15:29:17.921Z,2.67
2019-01-06T15:31:45.005Z,1.63
2019-01-06T15:34:12.083Z,1.60
2019-01-06T15:36:39.155Z,1.70
2019-01-06T15:39:06.335Z,1.83
2019-01-06T15:41:33.419Z,2.10
2019-01-06T15:44:00.534Z,1.90
2019-01-06T15:46:27.679Z,2.10
2019-01-06T15:48:56.333Z,1.87
2019-01-06T15:51:23.415Z,1.67
2019-01-06T15:53:50.515Z,2.17
2019-01-06T15:56:17.576Z,1.80
2019-01-06T15:58:44.782Z,2.40
2019-01-06T16:01:11.874Z,1.70
2019-01-06T16:03:39.007Z,1.73
2019-01-06T16:06:06.093Z,1.77
2019-01-06T16:08:45.619Z,2.00
2019-01-06T16:11:11.098Z,1.80
2019-01-06T16:13:38.200Z,1.27
2019-01-06T16:16:05.324Z,1.37
2019-01-06T16:18:32.614Z,1.60
2019-01-06T16:20:59.743Z,2.30
2019-01-06T16:23:26.912Z,1.60
2019-01-06T16:25:54.176Z,1.90
2019-01-06T16:28:21.275Z,1.80
2019-01-06T16:30:48.343Z,1.70
2019-01-06T16:33:15.547Z,1.50
2019-01-06T16:35:42.612Z,1.90
2019-01-06T16:38:09.668Z,1.50
2019-01-06T16:40:36.898Z,1.50
2019-01-06T16:43:03.957Z,1.60
2019-01-06T16:45:31.055Z,1.50
2019-01-06T16:47:58.220Z,1.70
2019-01-06T16:50:25.283Z,1.83
2019-01-06T16:52:52.379Z,1.87
2019-01-06T16:55:19.460Z,1.90
2019-01-06T16:57:46.575Z,1.50
2019-01-06T17:00:13.742Z,1.63
2019-01-06T17:02:40.799Z,1.83
2019-01-06T17:05:07.901Z,1.93
2019-01-06T17:07:34.990Z,1.37
2019-01-06T17:10:02.274Z,1.60
2019-01-06T17:12:29.412Z,1.17
2019-01-06T17:14:56.486Z,1.80
2019-01-06T17:17:24.435Z,1.40
2019-01-06T17:19:51.608Z,1.67
2019-01-06T17:22:18.699Z,1.93
2019-01-06T17:24:45.974Z,1.20
2019-01-06T17:27:13.038Z,1.60
2019-01-06T17:29:40.266Z,1.80
2019-01-06T17:32:07.348Z,2.17
2019-01-06T17:34:34.450Z,2.23
2019-01-06T17:37:01.670Z,1.83
2019-01-06T17:39:28.766Z,2.53
2019-01-06T17:41:55.838Z,2.10
2019-01-06T17:44:22.934Z,2.20
2019-01-06T17:46:50.012Z,2.70
2019-01-06T17:49:17.073Z,2.20
2019-01-06T17:51:44.185Z,2.60
2019-01-06T17:54:11.268Z,2.63
2019-01-06T17:56:38.419Z,2.83
2019-01-06T17:59:05.490Z,2.30
2019-01-06T18:01:32.590Z,2.20
2019-01-06T18:03:59.661Z,2.10
2019-01-06T18:06:27.016Z,2.07
2019-01-06T18:08:54.121Z,2.20
2019-01-06T18:11:21.302Z,2.40
2019-01-06T18:13:48.412Z,2.40
2019-01-06T18:16:15.561Z,2.07
2019-01-06T18:18:42.685Z,1.97
2019-01-06T18:21:09.753Z,1.90
2019-01-06T18:23:36.812Z,2.10
2019-01-06T18:26:04.036Z,2.70
2019-01-06T18:28:31.128Z,2.60
2019-01-06T18:30:58.222Z,2.03
2019-01-06T18:33:25.280Z,2.40
2019-01-06T18:35:52.424Z,2.43
2019-01-06T18:38:19.549Z,2.10
2019-01-06T18:40:46.612Z,2.20
2019-01-06T18:43:13.727Z,2.40
2019-01-06T18:45:40.867Z,2.33
2019-01-06T18:48:08.460Z,2.23
2019-01-06T18:50:35.519Z,2.67
2019-01-06T18:53:03.410Z,2.20
2019-01-06T18:55:30.543Z,2.90
2019-01-06T18:57:57.709Z,2.03
2019-01-06T19:00:25.148Z,2.57
2019-01-06T19:02:52.416Z,2.90
2019-01-06T19:05:20.393Z,2.77
2019-01-06T19:07:47.709Z,2.60
2019-01-06T19:10:15.376Z,2.10
2019-01-06T19:12:42.592Z,2.40
2019-01-06T19:15:09.824Z,2.43
2019-01-06T19:17:40.805Z,2.30
2019-01-06T19:20:06.727Z,2.20
2019-01-06T19:22:34.003Z,2.20
2019-01-06T19:25:01.076Z,2.07
2019-01-06T19:27:30.437Z,2.00
2019-01-06T19:29:58.351Z,1.87
2019-01-06T19:32:25.721Z,2.30
2019-01-06T19:34:53.351Z,1.93
2019-01-06T19:37:21.076Z,2.20
2019-01-06T19:39:48.597Z,2.63
2019-01-06T19:42:15.689Z,2.00
2019-01-06T19:44:43.219Z,1.90
2019-01-06T19:47:12.304Z,2.03
2019-01-06T19:49:40.234Z,2.30
2019-01-06T19:52:12.856Z,2.07
2019-01-06T19:54:36.153Z,2.07
2019-01-06T19:57:03.425Z,2.00
2019-01-06T19:59:31.206Z,2.17
2019-01-06T20:01:58.457Z,1.97
2019-01-06T20:04:25.678Z,2.03
2019-01-06T20:06:53.358Z,2.73
2019-01-06T20:09:20.719Z,2.10
2019-01-06T20:11:48.051Z,2.57
2019-01-06T20:14:15.531Z,2.20
2019-01-06T20:16:42.676Z,2.13
2019-01-06T20:19:10.527Z,2.40
2019-01-06T20:21:37.691Z,2.10
2019-01-06T20:24:04.815Z,2.20
2019-01-06T20:26:31.890Z,2.30
2019-01-06T20:28:59.288Z,3.13
2019-01-06T20:31:26.354Z,2.30
2019-01-06T20:33:53.480Z,2.73
2019-01-06T20:36:20.525Z,2.00
2019-01-06T20:38:47.746Z,2.20
2019-01-06T20:41:14.874Z,2.43
2019-01-06T20:43:42.067Z,5.20
2019-01-06T20:46:09.620Z,4.60
2019-01-06T20:48:36.972Z,4.43
2019-01-06T20:51:05.233Z,3.97
2019-01-06T20:53:33.361Z,4.03
2019-01-06T20:56:00.722Z,3.77
2019-01-06T20:58:28.059Z,3.80
2019-01-06T21:00:55.948Z,3.43
2019-01-06T21:03:23.348Z,3.37
2019-01-06T21:05:50.617Z,3.27
2019-01-06T21:08:18.071Z,3.80
2019-01-06T21:10:45.424Z,3.80
2019-01-06T21:13:12.995Z,3.67
2019-01-06T21:15:40.548Z,3.13
2019-01-06T21:18:07.996Z,2.93
2019-01-06T21:20:35.591Z,3.43
2019-01-06T21:23:04.114Z,2.77
2019-01-06T21:25:31.213Z,2.63
2019-01-06T21:27:58.271Z,3.27
2019-01-06T21:30:25.400Z,2.47
2019-01-06T21:32:52.520Z,2.40
2019-01-06T21:35:19.648Z,2.47
2019-01-06T21:37:46.769Z,3.10
2019-01-06T21:40:14.117Z,2.67
2019-01-06T21:42:41.194Z,2.90
2019-01-06T21:45:08.330Z,3.20
2019-01-06T21:47:36.369Z,2.50
2019-01-06T21:50:04.690Z,2.40
2019-01-06T21:52:32.456Z,3.03
2019-01-06T21:57:45.827Z,2.70
2019-01-06T22:00:12.934Z,2.20
2019-01-06T22:02:40.155Z,2.20
2019-01-06T22:05:07.735Z,2.60
2019-01-06T22:07:35.611Z,2.57
2019-01-06T22:10:02.668Z,2.40
2019-01-06T22:12:30.121Z,2.17
2019-01-06T22:14:58.087Z,2.20
2019-01-06T22:17:25.710Z,2.20
2019-01-06T22:19:54.190Z,2.50
2019-01-06T22:22:21.971Z,2.60
2019-01-06T22:24:49.972Z,2.53
2019-01-06T22:27:17.146Z,2.27
2019-01-06T22:29:44.232Z,2.60
2019-01-06T22:32:11.343Z,2.30
2019-01-06T22:34:38.435Z,2.33
2019-01-06T22:37:05.541Z,2.20
2019-01-06T22:39:32.610Z,2.60
2019-01-06T22:41:59.713Z,2.13
2019-01-06T22:44:26.903Z,2.03
2019-01-06T22:46:54.223Z,2.40
2019-01-06T22:49:21.347Z,2.23
2019-01-06T22:51:48.436Z,2.00
2019-01-06T22:54:15.496Z,2.20
2019-01-06T22:56:42.602Z,1.90
2019-01-06T22:59:09.655Z,2.73
2019-01-06T23:01:36.738Z,2.20
2019-01-06T23:04:03.829Z,2.30
2019-01-06T23:06:30.884Z,1.90
2019-01-06T23:08:58.000Z,1.97
2019-01-06T23:11:25.083Z,1.77
2019-01-06T23:13:52.155Z,2.33
2019-01-06T23:16:19.328Z,1.80
2019-01-06T23:18:46.393Z,2.13
2019-01-06T23:21:13.538Z,1.60
2019-01-06T23:23:40.591Z,2.33
2019-01-06T23:26:07.697Z,2.00
2019-01-06T23:28:34.769Z,1.83
2019-01-06T23:31:01.834Z,1.83
2019-01-06T23:33:28.917Z,1.80
2019-01-06T23:35:56.120Z,2.17
2019-01-06T23:38:23.211Z,1.60
2019-01-06T23:40:50.306Z,1.97
2019-01-06T23:43:17.373Z,2.00
2019-01-06T23:45:44.479Z,1.90
2019-01-06T23:48:11.562Z,1.90
2019-01-06T23:50:38.653Z,1.90
2019-01-06T23:53:05.755Z,2.20
2019-01-06T23:55:32.840Z,1.43
2019-01-06T23:57:59.903Z,1.87
